createdAt,value
2023-03-16T00:01:06.380Z,76.42
2023-03-16T00:03:36.739Z,76.55
2023-03-16T00:06:05.952Z,76.48
2023-03-16T00:08:35.713Z,76.48
2023-03-16T00:11:04.579Z,76.48
2023-03-16T00:13:33.250Z,76.56
2023-03-16T00:16:05.797Z,76.58
2023-03-16T00:18:41.407Z,76.79
2023-03-16T00:21:10.346Z,76.60
2023-03-16T00:23:39.035Z,76.71
2023-03-16T00:26:10.364Z,76.72
2023-03-16T00:28:39.791Z,76.79
2023-03-16T00:31:14.971Z,76.60
2023-03-16T00:33:43.805Z,77.06
2023-03-16T00:36:13.113Z,77.14
2023-03-16T00:38:46.907Z,77.01
2023-03-16T00:41:16.278Z,76.93
2023-03-16T00:43:45.706Z,76.69
2023-03-16T00:46:17.560Z,76.91
2023-03-16T00:48:47.882Z,76.92
2023-03-16T00:51:18.712Z,76.79
2023-03-16T00:53:47.818Z,76.99
2023-03-16T00:56:17.724Z,77.19
2023-03-16T00:58:46.406Z,77.93
2023-03-16T01:01:21.111Z,77.76
2023-03-16T01:03:50.037Z,77.72
2023-03-16T01:06:20.872Z,77.67
2023-03-16T01:08:49.893Z,77.89
2023-03-16T01:11:23.992Z,77.68
2023-03-16T01:13:54.698Z,77.64
2023-03-16T01:16:26.570Z,78.17
2023-03-16T01:18:57.729Z,78.14
2023-03-16T01:21:27.507Z,78.15
2023-03-16T01:23:56.447Z,78.36
2023-03-16T01:26:25.443Z,78.28
2023-03-16T01:28:55.196Z,78.32
2023-03-16T01:31:24.468Z,78.94
2023-03-16T01:33:53.363Z,78.73
2023-03-16T01:36:25.780Z,78.82
2023-03-16T01:39:00.490Z,78.76
2023-03-16T01:41:33.343Z,78.47
2023-03-16T01:44:02.116Z,78.88
2023-03-16T01:46:31.181Z,78.88
2023-03-16T01:49:09.859Z,78.74
2023-03-16T01:52:04.707Z,78.58
2023-03-16T01:55:06.268Z,79.06
2023-03-16T01:57:40.147Z,78.90
2023-03-16T02:00:31.665Z,79.03
2023-03-16T02:03:15.964Z,79.24
2023-03-16T02:06:03.398Z,79.06
2023-03-16T02:08:34.280Z,79.76
2023-03-16T02:11:04.944Z,79.20
2023-03-16T02:13:46.853Z,79.30
2023-03-16T02:16:19.757Z,78.92
2023-03-16T02:18:51.789Z,79.06
2023-03-16T02:21:34.462Z,78.82
2023-03-16T02:24:04.464Z,79.14
2023-03-16T02:26:57.176Z,78.86
2023-03-16T02:29:51.313Z,78.90
2023-03-16T02:32:22.790Z,78.69
2023-03-16T02:34:52.190Z,78.95
2023-03-16T02:37:46.643Z,79.15
2023-03-16T02:40:24.885Z,78.78
2023-03-16T02:43:17.384Z,78.66
2023-03-16T02:46:00.245Z,78.55
2023-03-16T02:48:48.094Z,78.61
2023-03-16T02:51:16.845Z,78.82
2023-03-16T02:53:45.649Z,78.57
2023-03-16T02:56:14.926Z,78.66
2023-03-16T02:58:43.612Z,78.78
2023-03-16T03:01:15.816Z,78.35
2023-03-16T03:03:44.592Z,78.41
2023-03-16T03:06:13.240Z,78.29
2023-03-16T03:08:42.887Z,78.22
2023-03-16T03:11:11.766Z,78.43
2023-03-16T03:13:44.695Z,78.21
2023-03-16T03:16:17.696Z,78.56
2023-03-16T03:18:46.504Z,78.62
2023-03-16T03:21:15.462Z,78.74
2023-03-16T03:23:46.724Z,78.69
2023-03-16T03:26:16.528Z,78.66
2023-03-16T03:28:45.982Z,78.74
2023-03-16T03:31:21.083Z,78.51
2023-03-16T03:33:50.006Z,78.75
2023-03-16T03:36:18.867Z,78.55
2023-03-16T03:38:49.903Z,78.66
2023-03-16T03:41:19.597Z,78.64
2023-03-16T03:43:48.546Z,78.61
2023-03-16T03:46:18.262Z,78.93
2023-03-16T03:48:47.060Z,78.77
2023-03-16T03:51:15.743Z,78.84
2023-03-16T03:53:55.365Z,78.62
2023-03-16T03:56:47.722Z,78.62
2023-03-16T03:59:18.323Z,78.56
2023-03-16T04:02:05.724Z,78.66
2023-03-16T04:04:44.970Z,78.33
2023-03-16T04:07:14.709Z,78.48
2023-03-16T04:09:43.831Z,78.64
2023-03-16T04:12:21.286Z,78.67
2023-03-16T04:14:52.025Z,78.23
2023-03-16T04:17:21.839Z,78.15
2023-03-16T04:19:52.345Z,78.20
2023-03-16T04:22:23.560Z,78.19
2023-03-16T04:24:52.899Z,78.11
2023-03-16T04:27:23.456Z,78.06
2023-03-16T04:29:55.848Z,77.85
2023-03-16T04:32:26.621Z,77.87
2023-03-16T04:34:56.772Z,78.18
2023-03-16T04:37:32.863Z,78.25
2023-03-16T04:40:10.945Z,78.30
2023-03-16T04:42:40.758Z,78.63
2023-03-16T04:45:11.539Z,78.67
2023-03-16T04:47:41.272Z,78.71
2023-03-16T04:50:12.463Z,78.76
2023-03-16T04:52:42.060Z,78.85
2023-03-16T04:55:11.350Z,79.59
2023-03-16T04:57:40.112Z,79.03
2023-03-16T05:00:12.674Z,79.16
2023-03-16T05:02:49.158Z,78.95
2023-03-16T05:05:18.857Z,79.21
2023-03-16T05:07:49.528Z,79.31
2023-03-16T05:10:19.401Z,79.41
2023-03-16T05:12:48.805Z,79.22
2023-03-16T05:15:17.799Z,79.66
2023-03-16T05:17:54.710Z,79.54
2023-03-16T05:20:26.599Z,79.40
2023-03-16T05:22:58.370Z,79.35
2023-03-16T05:25:50.356Z,79.35
2023-03-16T05:28:20.302Z,79.32
2023-03-16T05:30:57.274Z,79.53
2023-03-16T05:33:28.212Z,79.55
2023-03-16T05:36:03.209Z,79.41
2023-03-16T05:38:32.731Z,79.55
2023-03-16T05:41:05.867Z,79.26
2023-03-16T05:43:50.241Z,79.24
2023-03-16T05:46:20.951Z,79.35
2023-03-16T05:48:50.812Z,79.15
2023-03-16T05:51:20.993Z,79.22
2023-03-16T05:53:49.940Z,79.34
2023-03-16T05:56:28.925Z,79.38
2023-03-16T05:58:58.190Z,79.39
2023-03-16T06:01:28.605Z,79.29
2023-03-16T06:03:57.418Z,79.27
2023-03-16T06:06:27.718Z,79.11
2023-03-16T06:09:01.559Z,79.14
2023-03-16T06:11:33.168Z,78.98
2023-03-16T06:14:02.529Z,78.86
2023-03-16T06:16:31.458Z,79.11
2023-03-16T06:19:01.344Z,79.20
2023-03-16T06:21:30.770Z,78.96
2023-03-16T06:24:04.872Z,79.02
2023-03-16T06:26:33.890Z,78.96
2023-03-16T06:29:02.651Z,79.16
2023-03-16T06:31:31.579Z,78.96
2023-03-16T06:34:01.451Z,79.13
2023-03-16T06:36:30.200Z,79.13
2023-03-16T06:39:00.596Z,79.11
2023-03-16T06:41:36.086Z,79.21
2023-03-16T06:44:07.342Z,79.01
2023-03-16T06:46:38.955Z,78.74
2023-03-16T06:49:09.166Z,79.13
2023-03-16T06:51:37.928Z,79.00
2023-03-16T06:54:07.876Z,79.07
2023-03-16T06:56:41.592Z,79.18
2023-03-16T06:59:11.419Z,79.06
2023-03-16T07:01:42.777Z,78.92
2023-03-16T07:04:13.496Z,78.83
2023-03-16T07:06:43.114Z,78.56
2023-03-16T07:09:12.865Z,78.74
2023-03-16T07:11:41.670Z,78.84
2023-03-16T07:14:12.715Z,78.87
2023-03-16T07:19:45.503Z,78.94
2023-03-16T07:22:15.368Z,78.67
2023-03-16T07:24:44.889Z,78.95
2023-03-16T07:27:14.087Z,78.64
2023-03-16T07:29:43.481Z,78.71
2023-03-16T07:32:12.562Z,78.67
2023-03-16T07:34:42.182Z,78.71
2023-03-16T07:37:11.201Z,78.25
2023-03-16T07:39:40.937Z,78.29
2023-03-16T07:42:14.690Z,78.27
2023-03-16T07:45:27.508Z,77.84
2023-03-16T07:47:56.880Z,78.24
2023-03-16T07:50:38.368Z,77.95
2023-03-16T07:53:07.569Z,78.03
2023-03-16T07:55:39.190Z,77.98
2023-03-16T07:58:10.987Z,77.88
2023-03-16T08:00:43.293Z,77.81
2023-03-16T08:03:12.043Z,77.88
2023-03-16T08:05:41.022Z,77.83
2023-03-16T08:08:16.553Z,77.95
2023-03-16T08:10:50.125Z,77.97
2023-03-16T08:13:22.527Z,77.72
2023-03-16T08:15:58.750Z,77.53
2023-03-16T08:18:39.214Z,77.45
2023-03-16T08:21:08.905Z,77.52
2023-03-16T08:23:37.954Z,77.34
2023-03-16T08:26:10.329Z,77.26
2023-03-16T08:28:39.747Z,77.28
2023-03-16T08:31:12.445Z,76.90
2023-03-16T08:34:01.581Z,77.20
2023-03-16T08:36:32.072Z,77.20
2023-03-16T08:39:07.010Z,76.91
2023-03-16T08:41:46.203Z,76.91
2023-03-16T08:44:36.551Z,76.68
2023-03-16T08:51:44.926Z,76.39
2023-03-16T08:54:13.897Z,75.80
2023-03-16T08:56:42.393Z,75.69
2023-03-16T08:59:23.519Z,75.66
2023-03-16T09:01:58.975Z,75.73
2023-03-16T09:04:28.702Z,75.53
2023-03-16T09:07:08.424Z,74.71
2023-03-16T09:09:38.112Z,74.71
2023-03-16T09:12:07.522Z,74.22
2023-03-16T09:14:38.764Z,74.70
2023-03-16T09:17:08.036Z,75.24
2023-03-16T09:19:50.619Z,75.33
2023-03-16T09:22:25.968Z,74.82
2023-03-16T09:24:55.071Z,74.68
2023-03-16T09:27:23.800Z,74.60
2023-03-16T09:29:57.305Z,74.41
2023-03-16T09:32:30.411Z,74.64
2023-03-16T09:35:01.326Z,73.96
2023-03-16T09:37:44.753Z,73.87
2023-03-16T09:40:31.588Z,73.86
2023-03-16T09:43:38.772Z,73.67
2023-03-16T09:46:52.093Z,73.31
2023-03-16T09:49:31.672Z,73.15
2023-03-16T09:52:11.311Z,73.39
2023-03-16T09:55:12.119Z,73.39
2023-03-16T09:57:44.958Z,73.05
2023-03-16T10:00:28.162Z,72.92
2023-03-16T10:03:41.924Z,72.84
2023-03-16T10:06:17.443Z,73.51
2023-03-16T10:09:36.233Z,73.85
2023-03-16T10:12:08.118Z,74.07
2023-03-16T10:14:55.441Z,74.14
2023-03-16T10:17:47.434Z,74.37
2023-03-16T10:20:22.906Z,74.91
2023-03-16T10:22:53.329Z,74.89
2023-03-16T10:25:40.717Z,75.01
2023-03-16T10:28:21.991Z,75.09
2023-03-16T10:30:54.749Z,74.87
2023-03-16T10:33:26.936Z,74.12
2023-03-16T10:36:11.583Z,74.00
2023-03-16T10:38:46.968Z,73.88
2023-03-16T10:41:19.456Z,73.73
2023-03-16T10:44:12.595Z,73.92
2023-03-16T10:47:04.871Z,73.96
2023-03-16T10:49:49.157Z,74.25
2023-03-16T10:52:31.104Z,74.16
2023-03-16T10:55:11.546Z,73.85
2023-03-16T10:57:56.399Z,73.75
2023-03-16T11:00:38.591Z,73.60
2023-03-16T11:03:29.006Z,73.47
2023-03-16T11:06:20.732Z,73.50
2023-03-16T11:08:49.577Z,73.07
2023-03-16T11:11:30.014Z,73.07
2023-03-16T11:14:04.793Z,72.67
2023-03-16T11:17:09.933Z,72.18
2023-03-16T11:20:00.661Z,72.13
2023-03-16T11:22:30.448Z,72.43
2023-03-16T11:25:47.296Z,72.40
2023-03-16T11:28:25.203Z,72.11
2023-03-16T11:31:04.591Z,72.29
2023-03-16T11:34:34.980Z,72.15
2023-03-16T11:37:09.713Z,71.90
2023-03-16T11:40:15.327Z,71.52
2023-03-16T11:43:24.408Z,71.40
2023-03-16T11:46:12.215Z,71.44
2023-03-16T11:48:47.282Z,71.50
2023-03-16T11:52:00.637Z,71.42
2023-03-16T11:54:43.705Z,71.04
2023-03-16T11:58:04.127Z,70.54
2023-03-16T12:01:30.666Z,70.38
2023-03-16T12:04:18.881Z,70.78
2023-03-16T12:07:20.631Z,71.09
2023-03-16T12:10:07.956Z,72.47
2023-03-16T12:12:44.508Z,72.66
2023-03-16T12:15:33.520Z,73.49
2023-03-16T12:18:16.646Z,73.63
2023-03-16T12:21:24.730Z,74.24
2023-03-16T12:24:09.580Z,74.57
2023-03-16T12:26:43.116Z,74.65
2023-03-16T12:29:26.793Z,74.79
2023-03-16T12:32:31.646Z,74.95
2023-03-16T12:35:47.857Z,74.38
2023-03-16T12:39:10.118Z,74.00
2023-03-16T12:42:10.338Z,72.19
2023-03-16T12:45:09.815Z,72.16
2023-03-16T12:48:16.736Z,71.79
2023-03-16T12:50:55.933Z,70.39
2023-03-16T12:53:53.991Z,69.40
2023-03-16T12:56:31.160Z,69.44
2023-03-16T12:59:03.898Z,69.43
2023-03-16T13:01:45.301Z,69.14
2023-03-16T13:08:06.975Z,67.83
2023-03-16T13:10:37.761Z,67.33
2023-03-16T13:13:18.636Z,67.40
2023-03-16T13:15:50.369Z,67.35
2023-03-16T13:18:22.562Z,67.21
2023-03-16T13:21:13.459Z,67.42
2023-03-16T13:23:59.104Z,67.00
2023-03-16T13:26:45.596Z,67.25
2023-03-16T13:29:32.904Z,66.74
2023-03-16T13:32:08.894Z,67.09
2023-03-16T13:34:50.296Z,66.84
2023-03-16T13:37:24.115Z,66.26
2023-03-16T13:40:05.161Z,66.14
2023-03-16T13:42:34.396Z,66.29
2023-03-16T13:45:21.548Z,66.08
2023-03-16T13:47:51.300Z,66.32
2023-03-16T13:50:21.043Z,66.02
2023-03-16T13:53:04.764Z,65.87
2023-03-16T13:55:37.574Z,65.95
2023-03-16T13:58:19.773Z,66.06
2023-03-16T14:00:51.915Z,65.98
2023-03-16T14:03:36.305Z,66.46
2023-03-16T14:06:31.595Z,66.93
2023-03-16T14:09:17.591Z,66.68
2023-03-16T14:11:59.295Z,67.51
2023-03-16T14:14:42.935Z,67.33
2023-03-16T14:17:31.834Z,66.17
2023-03-16T14:20:17.967Z,65.68
2023-03-16T14:23:36.781Z,65.58
2023-03-16T14:26:24.056Z,66.06
2023-03-16T14:29:20.282Z,66.32
2023-03-16T14:31:50.119Z,66.41
2023-03-16T14:34:45.585Z,66.42
2023-03-16T14:37:20.718Z,66.07
2023-03-16T14:40:06.570Z,65.53
2023-03-16T14:42:58.647Z,64.67
2023-03-16T14:45:44.207Z,64.88
2023-03-16T14:48:21.664Z,64.69
2023-03-16T14:50:57.641Z,64.78
2023-03-16T14:53:29.314Z,64.68
2023-03-16T14:55:59.649Z,64.94
2023-03-16T14:58:31.096Z,64.93
2023-03-16T15:01:02.285Z,64.96
2023-03-16T15:03:39.120Z,65.11
2023-03-16T15:06:16.602Z,65.00
2023-03-16T15:08:50.324Z,64.78
2023-03-16T15:11:46.895Z,64.92
2023-03-16T15:14:43.765Z,65.31
2023-03-16T15:17:16.321Z,65.59
2023-03-16T15:19:45.414Z,65.76
2023-03-16T15:22:15.496Z,66.03
2023-03-16T15:24:44.840Z,66.97
2023-03-16T15:27:36.722Z,68.03
2023-03-16T15:30:15.892Z,68.09
2023-03-16T15:32:44.699Z,68.52
2023-03-16T15:35:14.320Z,68.58
2023-03-16T15:37:43.707Z,68.25
2023-03-16T15:40:26.861Z,68.22
2023-03-16T15:42:55.890Z,67.76
2023-03-16T15:45:25.593Z,67.81
2023-03-16T15:47:55.638Z,67.70
2023-03-16T15:50:25.947Z,67.19
2023-03-16T15:53:31.070Z,66.64
2023-03-16T15:56:07.903Z,66.37
2023-03-16T15:58:38.455Z,66.13
2023-03-16T16:01:09.239Z,65.72
2023-03-16T16:03:38.369Z,65.82
2023-03-16T16:06:12.133Z,65.84
2023-03-16T16:08:40.785Z,65.52
2023-03-16T16:11:36.185Z,65.83
2023-03-16T16:14:05.164Z,65.88
2023-03-16T16:16:34.561Z,66.38
2023-03-16T16:19:03.469Z,66.88
2023-03-16T16:21:34.016Z,67.15
2023-03-16T16:24:03.390Z,67.83
2023-03-16T16:26:48.939Z,67.91
2023-03-16T16:29:34.048Z,67.98
2023-03-16T16:32:02.923Z,68.47
2023-03-16T16:34:31.761Z,68.25
2023-03-16T16:37:00.812Z,68.25
2023-03-16T16:39:29.412Z,68.28
2023-03-16T16:41:58.200Z,68.13
2023-03-16T16:44:34.481Z,67.80
2023-03-16T16:47:18.463Z,66.88
2023-03-16T16:49:47.063Z,67.15
2023-03-16T16:52:20.512Z,66.72
2023-03-16T16:54:49.283Z,66.80
2023-03-16T16:57:20.284Z,67.17
2023-03-16T16:59:49.836Z,67.23
2023-03-16T17:02:31.881Z,66.93
2023-03-16T17:05:00.963Z,66.85
2023-03-16T17:07:30.477Z,66.77
2023-03-16T17:09:59.166Z,66.79
2023-03-16T17:12:30.596Z,66.75
2023-03-16T17:15:00.047Z,66.69
2023-03-16T17:17:28.894Z,66.63
2023-03-16T17:19:57.762Z,65.97
2023-03-16T17:22:28.689Z,65.98
2023-03-16T17:24:57.612Z,65.57
2023-03-16T17:27:32.332Z,65.44
2023-03-16T17:30:02.040Z,65.19
2023-03-16T17:32:31.180Z,65.04
2023-03-16T17:34:59.879Z,65.17
2023-03-16T17:37:28.988Z,65.50
2023-03-16T17:39:58.366Z,65.69
2023-03-16T17:42:27.311Z,65.80
2023-03-16T17:44:56.501Z,65.83
2023-03-16T17:47:27.818Z,66.20
2023-03-16T17:49:57.325Z,66.36
2023-03-16T17:52:29.366Z,66.34
2023-03-16T17:54:58.001Z,66.19
2023-03-16T17:57:32.681Z,66.28
2023-03-16T18:00:09.250Z,66.37
2023-03-16T18:03:00.005Z,66.21
2023-03-16T18:05:33.178Z,66.32
2023-03-16T18:08:28.782Z,66.34
2023-03-16T18:11:04.634Z,65.96
2023-03-16T18:13:39.680Z,65.59
2023-03-16T18:16:09.026Z,65.33
2023-03-16T18:18:41.686Z,65.35
2023-03-16T18:21:25.959Z,65.53
2023-03-16T18:23:56.277Z,65.80
2023-03-16T18:26:25.203Z,66.28
2023-03-16T18:28:54.179Z,66.88
2023-03-16T18:31:28.580Z,67.48
2023-03-16T18:34:03.617Z,67.74
2023-03-16T18:36:35.376Z,67.90
2023-03-16T18:39:17.469Z,68.25
2023-03-16T18:41:47.191Z,68.29
2023-03-16T18:44:23.676Z,68.35
2023-03-16T18:47:01.682Z,68.46
2023-03-16T18:49:35.811Z,68.40
2023-03-16T18:52:19.147Z,68.15
2023-03-16T18:54:48.748Z,68.05
2023-03-16T18:57:24.246Z,67.93
2023-03-16T18:59:53.544Z,68.17
2023-03-16T19:02:39.719Z,67.86
2023-03-16T19:05:20.106Z,68.21
2023-03-16T19:07:52.904Z,67.98
2023-03-16T19:10:37.656Z,67.82
2023-03-16T19:13:19.856Z,67.56
2023-03-16T19:15:52.304Z,67.56
2023-03-16T19:18:23.861Z,67.75
2023-03-16T19:20:54.051Z,67.44
2023-03-16T19:23:34.181Z,67.44
2023-03-16T19:26:05.030Z,67.17
2023-03-16T19:28:40.167Z,67.42
2023-03-16T19:31:22.215Z,67.36
2023-03-16T19:33:52.342Z,67.44
2023-03-16T19:36:31.438Z,67.45
2023-03-16T19:39:00.648Z,67.08
2023-03-16T19:41:37.553Z,66.78
2023-03-16T19:44:26.853Z,66.72
2023-03-16T19:46:55.778Z,66.57
2023-03-16T19:49:28.019Z,66.30
2023-03-16T19:51:58.550Z,66.25
2023-03-16T19:54:34.619Z,66.20
2023-03-16T19:57:14.016Z,66.38
2023-03-16T19:59:47.056Z,66.49
2023-03-16T20:02:35.761Z,66.15
2023-03-16T20:05:05.272Z,65.92
2023-03-16T20:07:38.293Z,66.01
2023-03-16T20:10:08.325Z,66.27
2023-03-16T20:12:41.884Z,66.38
2023-03-16T20:15:17.448Z,66.53
2023-03-16T20:17:46.781Z,66.62
2023-03-16T20:20:29.243Z,66.70
2023-03-16T20:23:00.164Z,66.97
2023-03-16T20:25:33.428Z,66.64
2023-03-16T20:28:04.062Z,66.68
2023-03-16T20:30:33.070Z,66.89
2023-03-16T20:33:02.010Z,67.10
2023-03-16T20:35:33.783Z,67.41
2023-03-16T20:38:02.435Z,67.51
2023-03-16T20:40:31.120Z,67.53
2023-03-16T20:43:00.096Z,67.66
2023-03-16T20:45:30.700Z,67.93
2023-03-16T20:47:59.451Z,68.26
2023-03-16T20:50:31.164Z,68.61
2023-03-16T20:52:59.817Z,68.75
2023-03-16T20:55:31.931Z,68.64
2023-03-16T20:58:01.395Z,68.85
2023-03-16T21:00:37.446Z,68.94
2023-03-16T21:03:20.890Z,69.17
2023-03-16T21:05:54.580Z,69.63
2023-03-16T21:08:23.719Z,69.92
2023-03-16T21:10:54.234Z,69.83
2023-03-16T21:13:33.478Z,70.03
2023-03-16T21:16:03.695Z,69.92
2023-03-16T21:18:33.224Z,70.15
2023-03-16T21:21:03.264Z,70.18
2023-03-16T21:23:31.959Z,70.44
2023-03-16T21:26:03.974Z,70.56
2023-03-16T21:28:35.389Z,70.65
2023-03-16T21:31:05.588Z,71.05
2023-03-16T21:33:40.783Z,70.76
2023-03-16T21:36:19.180Z,70.78
2023-03-16T21:38:49.690Z,71.09
2023-03-16T21:41:18.605Z,71.35
2023-03-16T21:43:50.183Z,71.13
2023-03-16T21:46:24.167Z,71.37
2023-03-16T21:48:56.124Z,71.64
2023-03-16T21:53:59.494Z,71.49
2023-03-16T21:56:29.261Z,71.50
2023-03-16T21:58:58.059Z,71.63
2023-03-16T22:01:33.084Z,72.04
2023-03-16T22:04:17.410Z,72.23
2023-03-16T22:06:46.207Z,72.06
2023-03-16T22:09:22.714Z,71.94
2023-03-16T22:11:51.515Z,72.06
2023-03-16T22:14:20.209Z,71.71
2023-03-16T22:16:49.489Z,72.04
2023-03-16T22:19:18.498Z,71.70
2023-03-16T22:21:48.079Z,71.90
2023-03-16T22:24:23.893Z,71.93
2023-03-16T22:26:53.765Z,71.98
2023-03-16T22:29:29.113Z,71.97
2023-03-16T22:32:07.248Z,71.84
2023-03-16T22:34:47.210Z,72.12
2023-03-16T22:37:28.992Z,72.13
2023-03-16T22:39:58.762Z,72.46
2023-03-16T22:42:38.199Z,72.57
2023-03-16T22:45:22.289Z,72.49
2023-03-16T22:47:51.954Z,72.69
2023-03-16T22:50:21.771Z,72.97
2023-03-16T22:52:54.879Z,73.14
2023-03-16T22:55:39.307Z,73.15
2023-03-16T22:58:18.127Z,73.31
2023-03-16T23:00:46.974Z,73.69
2023-03-16T23:03:22.635Z,73.53
2023-03-16T23:05:52.303Z,73.47
2023-03-16T23:08:24.017Z,73.46
2023-03-16T23:10:53.710Z,73.77
2023-03-16T23:13:25.855Z,74.25
2023-03-16T23:15:57.022Z,74.26
2023-03-16T23:18:27.033Z,74.15
2023-03-16T23:20:55.917Z,74.43
2023-03-16T23:23:24.741Z,74.85
2023-03-16T23:25:53.406Z,74.20
2023-03-16T23:28:25.019Z,74.55
2023-03-16T23:30:53.814Z,74.34
2023-03-16T23:33:22.698Z,74.43
2023-03-16T23:35:51.818Z,74.54
2023-03-16T23:38:20.533Z,74.68
2023-03-16T23:40:50.023Z,75.21
2023-03-16T23:43:18.717Z,74.81
2023-03-16T23:45:47.654Z,74.79
2023-03-16T23:48:20.904Z,74.78
2023-03-16T23:50:54.613Z,74.46
2023-03-16T23:53:24.263Z,74.42
2023-03-16T23:55:52.904Z,74.80
2023-03-16T23:58:21.858Z,74.53
